sensor_id;sensor_type;location;lat;lon;timestamp;temperature;humidity
11836;DHT22;5977;51.972;7.640;2023-05-07T00:17:08;20.50;77.70
11836;DHT22;5977;51.972;7.640;2023-05-07T00:37:31;20.50;77.70
11836;DHT22;5977;51.972;7.640;2023-05-07T00:44:24;20.50;77.30
11836;DHT22;5977;51.972;7.640;2023-05-07T00:55:51;20.40;77.70
11836;DHT22;5977;51.972;7.640;2023-05-07T01:02:45;20.40;77.60
11836;DHT22;5977;51.972;7.640;2023-05-07T01:09:28;20.40;78.50
11836;DHT22;5977;51.972;7.640;2023-05-07T01:16:22;20.30;79.00
11836;DHT22;5977;51.972;7.640;2023-05-07T01:23:05;20.40;79.50
11836;DHT22;5977;51.972;7.640;2023-05-07T01:30:00;20.40;78.80
11836;DHT22;5977;51.972;7.640;2023-05-07T01:36:55;20.00;79.40
11836;DHT22;5977;51.972;7.640;2023-05-07T01:48:15;20.20;78.10
11836;DHT22;5977;51.972;7.640;2023-05-07T02:08:14;20.20;78.40
11836;DHT22;5977;51.972;7.640;2023-05-07T02:19:27;20.10;78.20
11836;DHT22;5977;51.972;7.640;2023-05-07T02:26:36;20.00;77.70
11836;DHT22;5977;51.972;7.640;2023-05-07T02:33:24;20.00;77.40
11836;DHT22;5977;51.972;7.640;2023-05-07T02:49:02;19.90;77.40
11836;DHT22;5977;51.972;7.640;2023-05-07T03:13:28;19.70;77.50
11836;DHT22;5977;51.972;7.640;2023-05-07T03:20:16;19.60;77.60
11836;DHT22;5977;51.972;7.640;2023-05-07T03:27:02;19.60;77.60
11836;DHT22;5977;51.972;7.640;2023-05-07T03:47:16;19.70;77.50
11836;DHT22;5977;51.972;7.640;2023-05-07T03:54:05;19.60;77.30
11836;DHT22;5977;51.972;7.640;2023-05-07T04:10:13;19.50;76.70
11836;DHT22;5977;51.972;7.640;2023-05-07T04:17:44;19.40;77.10
11836;DHT22;5977;51.972;7.640;2023-05-07T04:41:51;19.40;76.30
11836;DHT22;5977;51.972;7.640;2023-05-07T04:57:33;19.60;75.60
11836;DHT22;5977;51.972;7.640;2023-05-07T05:14:58;19.80;74.50
11836;DHT22;5977;51.972;7.640;2023-05-07T05:17:27;19.70;74.90
11836;DHT22;5977;51.972;7.640;2023-05-07T05:19:55;19.60;75.80
11836;DHT22;5977;51.972;7.640;2023-05-07T05:22:24;19.70;75.20
11836;DHT22;5977;51.972;7.640;2023-05-07T05:24:52;19.50;74.70
11836;DHT22;5977;51.972;7.640;2023-05-07T05:27:21;19.40;75.10
11836;DHT22;5977;51.972;7.640;2023-05-07T05:29:50;19.40;75.10
11836;DHT22;5977;51.972;7.640;2023-05-07T05:32:19;19.50;75.50
11836;DHT22;5977;51.972;7.640;2023-05-07T05:34:48;19.60;75.10
11836;DHT22;5977;51.972;7.640;2023-05-07T05:37:16;19.60;74.90
11836;DHT22;5977;51.972;7.640;2023-05-07T05:39:44;19.70;75.80
11836;DHT22;5977;51.972;7.640;2023-05-07T05:42:13;19.70;74.80
11836;DHT22;5977;51.972;7.640;2023-05-07T05:44:41;19.60;75.60
11836;DHT22;5977;51.972;7.640;2023-05-07T05:47:08;19.60;74.80
11836;DHT22;5977;51.972;7.640;2023-05-07T05:49:38;19.80;75.30
11836;DHT22;5977;51.972;7.640;2023-05-07T05:52:07;19.80;75.00
11836;DHT22;5977;51.972;7.640;2023-05-07T05:54:37;19.90;75.00
11836;DHT22;5977;51.972;7.640;2023-05-07T05:57:05;19.60;74.40
11836;DHT22;5977;51.972;7.640;2023-05-07T05:59:33;19.60;75.00
11836;DHT22;5977;51.972;7.640;2023-05-07T06:02:01;19.80;75.40
11836;DHT22;5977;51.972;7.640;2023-05-07T06:04:29;19.80;75.20
11836;DHT22;5977;51.972;7.640;2023-05-07T06:06:59;19.70;74.60
11836;DHT22;5977;51.972;7.640;2023-05-07T06:09:27;19.70;74.80
11836;DHT22;5977;51.972;7.640;2023-05-07T06:11:55;19.60;74.40
11836;DHT22;5977;51.972;7.640;2023-05-07T06:14:26;19.60;74.20
11836;DHT22;5977;51.972;7.640;2023-05-07T06:16:55;19.40;74.10
11836;DHT22;5977;51.972;7.640;2023-05-07T06:19:23;19.40;74.80
11836;DHT22;5977;51.972;7.640;2023-05-07T06:21:54;19.40;74.60
11836;DHT22;5977;51.972;7.640;2023-05-07T06:24:25;19.50;74.50
11836;DHT22;5977;51.972;7.640;2023-05-07T06:26:52;19.50;74.40
11836;DHT22;5977;51.972;7.640;2023-05-07T06:29:20;19.50;73.70
11836;DHT22;5977;51.972;7.640;2023-05-07T06:31:48;19.40;74.20
11836;DHT22;5977;51.972;7.640;2023-05-07T06:34:16;19.40;74.20
11836;DHT22;5977;51.972;7.640;2023-05-07T06:36:45;19.50;74.30
11836;DHT22;5977;51.972;7.640;2023-05-07T06:39:34;19.60;73.80
11836;DHT22;5977;51.972;7.640;2023-05-07T06:42:02;19.60;73.50
11836;DHT22;5977;51.972;7.640;2023-05-07T06:44:32;19.80;73.20
11836;DHT22;5977;51.972;7.640;2023-05-07T06:47:09;19.90;72.80
11836;DHT22;5977;51.972;7.640;2023-05-07T06:49:41;20.00;72.40
11836;DHT22;5977;51.972;7.640;2023-05-07T06:52:08;20.00;72.20
11836;DHT22;5977;51.972;7.640;2023-05-07T06:54:38;19.90;72.40
11836;DHT22;5977;51.972;7.640;2023-05-07T06:57:07;19.80;73.20
11836;DHT22;5977;51.972;7.640;2023-05-07T06:59:34;19.90;72.50
11836;DHT22;5977;51.972;7.640;2023-05-07T07:02:03;19.90;72.40
11836;DHT22;5977;51.972;7.640;2023-05-07T07:04:31;19.90;72.30
11836;DHT22;5977;51.972;7.640;2023-05-07T07:07:03;19.80;72.30
11836;DHT22;5977;51.972;7.640;2023-05-07T07:09:31;19.90;72.50
11836;DHT22;5977;51.972;7.640;2023-05-07T07:12:02;19.90;72.40
11836;DHT22;5977;51.972;7.640;2023-05-07T07:14:30;19.70;72.70
11836;DHT22;5977;51.972;7.640;2023-05-07T07:16:58;19.90;72.40
11836;DHT22;5977;51.972;7.640;2023-05-07T07:19:26;19.90;72.20
11836;DHT22;5977;51.972;7.640;2023-05-07T07:21:55;20.00;72.00
11836;DHT22;5977;51.972;7.640;2023-05-07T07:24:23;20.10;71.50
11836;DHT22;5977;51.972;7.640;2023-05-07T07:26:55;20.20;71.50
11836;DHT22;5977;51.972;7.640;2023-05-07T07:29:26;20.10;72.00
11836;DHT22;5977;51.972;7.640;2023-05-07T07:31:55;20.00;72.10
11836;DHT22;5977;51.972;7.640;2023-05-07T07:34:23;20.00;73.40
11836;DHT22;5977;51.972;7.640;2023-05-07T07:36:51;19.90;73.50
11836;DHT22;5977;51.972;7.640;2023-05-07T07:39:19;20.00;73.40
11836;DHT22;5977;51.972;7.640;2023-05-07T07:41:50;20.10;74.70
11836;DHT22;5977;51.972;7.640;2023-05-07T07:44:19;20.20;74.40
11836;DHT22;5977;51.972;7.640;2023-05-07T07:46:53;20.30;74.70
11836;DHT22;5977;51.972;7.640;2023-05-07T07:49:23;20.30;74.40
11836;DHT22;5977;51.972;7.640;2023-05-07T07:51:51;20.40;73.80
11836;DHT22;5977;51.972;7.640;2023-05-07T07:54:18;20.20;73.60
11836;DHT22;5977;51.972;7.640;2023-05-07T07:56:46;20.30;74.00
11836;DHT22;5977;51.972;7.640;2023-05-07T07:59:15;20.60;73.80
11836;DHT22;5977;51.972;7.640;2023-05-07T08:01:46;20.80;73.40
11836;DHT22;5977;51.972;7.640;2023-05-07T08:04:21;20.60;73.20
11836;DHT22;5977;51.972;7.640;2023-05-07T08:06:49;20.50;72.80
11836;DHT22;5977;51.972;7.640;2023-05-07T08:09:18;20.70;72.40
11836;DHT22;5977;51.972;7.640;2023-05-07T08:11:47;20.50;73.10
11836;DHT22;5977;51.972;7.640;2023-05-07T08:14:15;20.30;72.10
11836;DHT22;5977;51.972;7.640;2023-05-07T08:16:46;20.00;72.40
11836;DHT22;5977;51.972;7.640;2023-05-07T08:19:14;20.10;72.90
11836;DHT22;5977;51.972;7.640;2023-05-07T08:21:44;20.20;72.90
11836;DHT22;5977;51.972;7.640;2023-05-07T08:24:14;20.30;72.40
11836;DHT22;5977;51.972;7.640;2023-05-07T08:26:42;20.50;72.70
11836;DHT22;5977;51.972;7.640;2023-05-07T08:29:11;20.70;71.20
11836;DHT22;5977;51.972;7.640;2023-05-07T08:31:39;20.30;71.30
11836;DHT22;5977;51.972;7.640;2023-05-07T08:34:07;20.10;71.50
11836;DHT22;5977;51.972;7.640;2023-05-07T08:36:39;20.00;72.20
11836;DHT22;5977;51.972;7.640;2023-05-07T08:39:10;19.90;73.10
11836;DHT22;5977;51.972;7.640;2023-05-07T08:41:38;20.00;73.00
11836;DHT22;5977;51.972;7.640;2023-05-07T08:44:11;20.20;73.40
11836;DHT22;5977;51.972;7.640;2023-05-07T08:46:41;20.50;72.30
11836;DHT22;5977;51.972;7.640;2023-05-07T08:49:13;20.60;72.50
11836;DHT22;5977;51.972;7.640;2023-05-07T08:51:45;20.40;72.30
11836;DHT22;5977;51.972;7.640;2023-05-07T08:54:17;20.60;72.30
11836;DHT22;5977;51.972;7.640;2023-05-07T08:56:46;20.60;72.50
11836;DHT22;5977;51.972;7.640;2023-05-07T08:59:15;20.70;72.00
11836;DHT22;5977;51.972;7.640;2023-05-07T09:01:44;20.80;71.90
11836;DHT22;5977;51.972;7.640;2023-05-07T09:04:12;20.80;71.90
11836;DHT22;5977;51.972;7.640;2023-05-07T09:06:41;20.90;71.50
11836;DHT22;5977;51.972;7.640;2023-05-07T09:09:14;20.80;71.70
11836;DHT22;5977;51.972;7.640;2023-05-07T09:11:46;20.90;71.30
11836;DHT22;5977;51.972;7.640;2023-05-07T09:14:21;20.60;70.70
11836;DHT22;5977;51.972;7.640;2023-05-07T09:16:52;20.10;71.70
11836;DHT22;5977;51.972;7.640;2023-05-07T09:19:22;20.50;72.10
11836;DHT22;5977;51.972;7.640;2023-05-07T09:21:58;20.80;71.40
11836;DHT22;5977;51.972;7.640;2023-05-07T09:24:26;21.30;70.80
11836;DHT22;5977;51.972;7.640;2023-05-07T09:26:57;21.20;69.60
11836;DHT22;5977;51.972;7.640;2023-05-07T09:29:26;21.20;70.20
11836;DHT22;5977;51.972;7.640;2023-05-07T09:31:55;21.30;70.30
11836;DHT22;5977;51.972;7.640;2023-05-07T09:34:23;21.60;69.60
11836;DHT22;5977;51.972;7.640;2023-05-07T09:36:52;21.40;69.80
11836;DHT22;5977;51.972;7.640;2023-05-07T09:39:21;21.70;70.10
11836;DHT22;5977;51.972;7.640;2023-05-07T09:41:49;21.70;67.90
11836;DHT22;5977;51.972;7.640;2023-05-07T09:44:25;21.50;68.40
11836;DHT22;5977;51.972;7.640;2023-05-07T09:46:54;21.80;68.70
11836;DHT22;5977;51.972;7.640;2023-05-07T09:49:30;22.00;68.10
11836;DHT22;5977;51.972;7.640;2023-05-07T09:52:04;21.80;67.30
11836;DHT22;5977;51.972;7.640;2023-05-07T09:54:37;22.10;68.00
11836;DHT22;5977;51.972;7.640;2023-05-07T09:57:07;22.20;66.70
11836;DHT22;5977;51.972;7.640;2023-05-07T09:59:42;22.20;67.20
11836;DHT22;5977;51.972;7.640;2023-05-07T10:02:14;21.90;68.20
11836;DHT22;5977;51.972;7.640;2023-05-07T10:04:48;21.80;68.60
11836;DHT22;5977;51.972;7.640;2023-05-07T10:07:21;21.80;68.90
11836;DHT22;5977;51.972;7.640;2023-05-07T10:09:53;21.80;69.00
11836;DHT22;5977;51.972;7.640;2023-05-07T10:12:33;21.90;68.50
11836;DHT22;5977;51.972;7.640;2023-05-07T10:15:12;21.90;68.50
11836;DHT22;5977;51.972;7.640;2023-05-07T10:17:44;21.80;68.40
11836;DHT22;5977;51.972;7.640;2023-05-07T10:20:13;21.80;68.30
11836;DHT22;5977;51.972;7.640;2023-05-07T10:22:45;21.80;68.30
11836;DHT22;5977;51.972;7.640;2023-05-07T10:25:21;21.90;68.60
11836;DHT22;5977;51.972;7.640;2023-05-07T10:27:51;22.00;68.40
11836;DHT22;5977;51.972;7.640;2023-05-07T10:30:29;22.10;68.70
11836;DHT22;5977;51.972;7.640;2023-05-07T10:33:06;22.00;68.10
11836;DHT22;5977;51.972;7.640;2023-05-07T10:35:42;22.00;68.20
11836;DHT22;5977;51.972;7.640;2023-05-07T10:38:11;22.00;68.50
11836;DHT22;5977;51.972;7.640;2023-05-07T10:40:41;22.20;69.00
11836;DHT22;5977;51.972;7.640;2023-05-07T10:43:09;22.40;68.20
11836;DHT22;5977;51.972;7.640;2023-05-07T10:45:44;22.30;66.80
11836;DHT22;5977;51.972;7.640;2023-05-07T10:48:33;22.20;68.00
11836;DHT22;5977;51.972;7.640;2023-05-07T10:51:20;22.50;67.50
11836;DHT22;5977;51.972;7.640;2023-05-07T10:54:20;22.50;67.20
11836;DHT22;5977;51.972;7.640;2023-05-07T10:57:35;22.50;66.70
11836;DHT22;5977;51.972;7.640;2023-05-07T11:00:41;22.30;68.40
11836;DHT22;5977;51.972;7.640;2023-05-07T11:03:17;22.40;67.40
11836;DHT22;5977;51.972;7.640;2023-05-07T11:06:10;22.30;67.50
11836;DHT22;5977;51.972;7.640;2023-05-07T11:08:55;22.50;67.70
11836;DHT22;5977;51.972;7.640;2023-05-07T11:11:51;22.60;67.10
11836;DHT22;5977;51.972;7.640;2023-05-07T11:14:44;22.70;66.70
11836;DHT22;5977;51.972;7.640;2023-05-07T11:17:17;22.60;66.60
11836;DHT22;5977;51.972;7.640;2023-05-07T11:19:52;22.40;67.00
11836;DHT22;5977;51.972;7.640;2023-05-07T11:22:39;22.50;67.50
11836;DHT22;5977;51.972;7.640;2023-05-07T11:25:17;22.30;67.10
11836;DHT22;5977;51.972;7.640;2023-05-07T11:27:52;22.30;67.40
11836;DHT22;5977;51.972;7.640;2023-05-07T11:30:22;22.50;67.50
11836;DHT22;5977;51.972;7.640;2023-05-07T11:32:49;22.50;66.50
11836;DHT22;5977;51.972;7.640;2023-05-07T11:35:18;22.50;67.30
11836;DHT22;5977;51.972;7.640;2023-05-07T11:37:57;22.50;66.80
11836;DHT22;5977;51.972;7.640;2023-05-07T11:40:27;22.30;67.40
11836;DHT22;5977;51.972;7.640;2023-05-07T11:42:55;22.30;67.40
11836;DHT22;5977;51.972;7.640;2023-05-07T11:45:25;22.50;67.70
11836;DHT22;5977;51.972;7.640;2023-05-07T11:47:53;22.50;66.80
11836;DHT22;5977;51.972;7.640;2023-05-07T11:50:21;22.60;66.90
11836;DHT22;5977;51.972;7.640;2023-05-07T11:52:51;22.60;66.50
11836;DHT22;5977;51.972;7.640;2023-05-07T11:55:19;22.50;66.70
11836;DHT22;5977;51.972;7.640;2023-05-07T11:57:48;22.50;66.90
11836;DHT22;5977;51.972;7.640;2023-05-07T12:00:16;22.50;67.50
11836;DHT22;5977;51.972;7.640;2023-05-07T12:02:46;22.50;66.40
11836;DHT22;5977;51.972;7.640;2023-05-07T12:05:14;22.40;66.90
11836;DHT22;5977;51.972;7.640;2023-05-07T12:07:42;22.40;67.40
11836;DHT22;5977;51.972;7.640;2023-05-07T12:10:11;22.40;67.40
11836;DHT22;5977;51.972;7.640;2023-05-07T12:12:39;22.50;67.50
11836;DHT22;5977;51.972;7.640;2023-05-07T12:15:09;22.50;67.30
11836;DHT22;5977;51.972;7.640;2023-05-07T12:17:38;22.60;67.40
11836;DHT22;5977;51.972;7.640;2023-05-07T12:20:08;22.60;66.60
11836;DHT22;5977;51.972;7.640;2023-05-07T12:22:37;22.60;67.00
11836;DHT22;5977;51.972;7.640;2023-05-07T12:25:05;22.70;66.70
11836;DHT22;5977;51.972;7.640;2023-05-07T12:27:36;22.70;67.40
11836;DHT22;5977;51.972;7.640;2023-05-07T12:30:05;22.70;67.50
11836;DHT22;5977;51.972;7.640;2023-05-07T12:32:33;22.70;67.30
11836;DHT22;5977;51.972;7.640;2023-05-07T12:35:07;22.70;66.90
11836;DHT22;5977;51.972;7.640;2023-05-07T12:37:36;22.80;66.80
11836;DHT22;5977;51.972;7.640;2023-05-07T12:40:04;22.70;66.50
11836;DHT22;5977;51.972;7.640;2023-05-07T12:42:36;22.60;66.40
11836;DHT22;5977;51.972;7.640;2023-05-07T12:45:08;22.50;65.40
11836;DHT22;5977;51.972;7.640;2023-05-07T12:47:37;22.40;66.80
11836;DHT22;5977;51.972;7.640;2023-05-07T12:50:07;22.50;68.00
11836;DHT22;5977;51.972;7.640;2023-05-07T12:52:35;22.60;67.40
11836;DHT22;5977;51.972;7.640;2023-05-07T12:55:08;22.60;67.00
11836;DHT22;5977;51.972;7.640;2023-05-07T12:57:39;22.50;66.70
11836;DHT22;5977;51.972;7.640;2023-05-07T13:00:08;22.70;66.50
11836;DHT22;5977;51.972;7.640;2023-05-07T13:02:39;22.70;65.60
11836;DHT22;5977;51.972;7.640;2023-05-07T13:05:08;22.70;66.20
11836;DHT22;5977;51.972;7.640;2023-05-07T13:07:37;22.80;66.40
11836;DHT22;5977;51.972;7.640;2023-05-07T13:10:06;22.70;65.30
11836;DHT22;5977;51.972;7.640;2023-05-07T13:12:34;22.70;66.20
11836;DHT22;5977;51.972;7.640;2023-05-07T13:15:03;22.70;66.40
11836;DHT22;5977;51.972;7.640;2023-05-07T13:17:31;22.70;65.50
11836;DHT22;5977;51.972;7.640;2023-05-07T13:19:59;22.70;65.70
11836;DHT22;5977;51.972;7.640;2023-05-07T13:22:28;22.70;66.10
11836;DHT22;5977;51.972;7.640;2023-05-07T13:24:56;22.80;65.60
11836;DHT22;5977;51.972;7.640;2023-05-07T13:27:24;22.70;65.30
11836;DHT22;5977;51.972;7.640;2023-05-07T13:29:52;22.90;65.70
11836;DHT22;5977;51.972;7.640;2023-05-07T13:32:20;22.80;65.30
11836;DHT22;5977;51.972;7.640;2023-05-07T13:34:48;22.90;64.90
11836;DHT22;5977;51.972;7.640;2023-05-07T13:37:16;23.00;64.90
11836;DHT22;5977;51.972;7.640;2023-05-07T13:39:45;23.00;64.90
11836;DHT22;5977;51.972;7.640;2023-05-07T13:42:13;23.00;65.00
11836;DHT22;5977;51.972;7.640;2023-05-07T13:44:41;23.00;65.30
11836;DHT22;5977;51.972;7.640;2023-05-07T13:47:10;23.10;65.20
11836;DHT22;5977;51.972;7.640;2023-05-07T13:49:38;23.10;64.40
11836;DHT22;5977;51.972;7.640;2023-05-07T13:52:06;23.10;64.50
11836;DHT22;5977;51.972;7.640;2023-05-07T13:54:34;23.10;64.80
11836;DHT22;5977;51.972;7.640;2023-05-07T13:57:04;23.10;64.60
11836;DHT22;5977;51.972;7.640;2023-05-07T13:59:32;23.00;64.50
11836;DHT22;5977;51.972;7.640;2023-05-07T14:02:00;22.90;65.20
11836;DHT22;5977;51.972;7.640;2023-05-07T14:04:28;23.00;65.00
11836;DHT22;5977;51.972;7.640;2023-05-07T14:06:56;22.90;65.40
11836;DHT22;5977;51.972;7.640;2023-05-07T14:09:24;22.90;65.40
11836;DHT22;5977;51.972;7.640;2023-05-07T14:11:51;22.90;66.10
11836;DHT22;5977;51.972;7.640;2023-05-07T14:14:21;22.70;64.40
11836;DHT22;5977;51.972;7.640;2023-05-07T14:16:49;22.60;64.90
11836;DHT22;5977;51.972;7.640;2023-05-07T14:19:17;22.60;65.30
11836;DHT22;5977;51.972;7.640;2023-05-07T14:21:45;22.50;65.50
11836;DHT22;5977;51.972;7.640;2023-05-07T14:24:12;22.60;66.00
11836;DHT22;5977;51.972;7.640;2023-05-07T14:26:56;22.70;65.50
11836;DHT22;5977;51.972;7.640;2023-05-07T14:29:25;22.80;65.40
11836;DHT22;5977;51.972;7.640;2023-05-07T14:31:53;22.90;64.90
11836;DHT22;5977;51.972;7.640;2023-05-07T14:34:21;22.70;65.00
11836;DHT22;5977;51.972;7.640;2023-05-07T14:36:49;22.60;65.20
11836;DHT22;5977;51.972;7.640;2023-05-07T14:39:18;22.70;65.90
11836;DHT22;5977;51.972;7.640;2023-05-07T14:41:46;22.60;65.40
11836;DHT22;5977;51.972;7.640;2023-05-07T14:44:14;22.60;65.70
11836;DHT22;5977;51.972;7.640;2023-05-07T14:46:43;22.70;65.50
11836;DHT22;5977;51.972;7.640;2023-05-07T14:49:11;22.80;65.90
11836;DHT22;5977;51.972;7.640;2023-05-07T14:51:43;22.80;65.50
11836;DHT22;5977;51.972;7.640;2023-05-07T14:54:12;22.80;65.30
11836;DHT22;5977;51.972;7.640;2023-05-07T14:56:40;22.70;65.40
11836;DHT22;5977;51.972;7.640;2023-05-07T14:59:09;22.70;65.20
11836;DHT22;5977;51.972;7.640;2023-05-07T15:01:37;22.60;65.60
11836;DHT22;5977;51.972;7.640;2023-05-07T15:04:08;22.70;65.50
11836;DHT22;5977;51.972;7.640;2023-05-07T15:06:36;22.70;65.50
11836;DHT22;5977;51.972;7.640;2023-05-07T15:09:04;22.70;65.20
11836;DHT22;5977;51.972;7.640;2023-05-07T15:11:32;22.80;64.90
11836;DHT22;5977;51.972;7.640;2023-05-07T15:14:03;22.70;65.40
11836;DHT22;5977;51.972;7.640;2023-05-07T15:16:31;22.60;64.90
11836;DHT22;5977;51.972;7.640;2023-05-07T15:18:59;22.40;65.50
11836;DHT22;5977;51.972;7.640;2023-05-07T15:21:28;22.50;66.00
11836;DHT22;5977;51.972;7.640;2023-05-07T15:23:57;22.70;66.20
11836;DHT22;5977;51.972;7.640;2023-05-07T15:26:25;22.70;65.50
11836;DHT22;5977;51.972;7.640;2023-05-07T15:28:53;22.70;65.90
11836;DHT22;5977;51.972;7.640;2023-05-07T15:31:23;22.80;65.70
11836;DHT22;5977;51.972;7.640;2023-05-07T15:33:52;22.70;64.60
11836;DHT22;5977;51.972;7.640;2023-05-07T15:36:20;22.60;65.50
11836;DHT22;5977;51.972;7.640;2023-05-07T15:38:49;22.70;65.30
11836;DHT22;5977;51.972;7.640;2023-05-07T15:41:17;22.80;65.50
11836;DHT22;5977;51.972;7.640;2023-05-07T15:43:47;22.80;65.30
11836;DHT22;5977;51.972;7.640;2023-05-07T15:46:18;22.70;65.00
11836;DHT22;5977;51.972;7.640;2023-05-07T15:48:46;22.70;65.90
11836;DHT22;5977;51.972;7.640;2023-05-07T15:51:14;22.80;65.60
11836;DHT22;5977;51.972;7.640;2023-05-07T15:53:43;22.80;65.30
11836;DHT22;5977;51.972;7.640;2023-05-07T15:56:12;22.80;65.80
11836;DHT22;5977;51.972;7.640;2023-05-07T15:58:40;22.90;65.50
11836;DHT22;5977;51.972;7.640;2023-05-07T16:01:08;22.70;65.80
11836;DHT22;5977;51.972;7.640;2023-05-07T16:03:36;22.60;65.70
11836;DHT22;5977;51.972;7.640;2023-05-07T16:06:06;22.50;65.90
11836;DHT22;5977;51.972;7.640;2023-05-07T16:08:33;22.40;66.30
11836;DHT22;5977;51.972;7.640;2023-05-07T16:11:01;22.30;66.80
11836;DHT22;5977;51.972;7.640;2023-05-07T16:13:31;22.40;66.70
11836;DHT22;5977;51.972;7.640;2023-05-07T16:15:59;22.30;66.90
11836;DHT22;5977;51.972;7.640;2023-05-07T16:18:27;22.30;66.80
11836;DHT22;5977;51.972;7.640;2023-05-07T16:20:55;22.20;67.10
11836;DHT22;5977;51.972;7.640;2023-05-07T16:23:23;22.30;67.20
11836;DHT22;5977;51.972;7.640;2023-05-07T16:25:51;22.10;66.90
11836;DHT22;5977;51.972;7.640;2023-05-07T16:28:19;22.00;67.00
11836;DHT22;5977;51.972;7.640;2023-05-07T16:30:51;21.90;67.40
11836;DHT22;5977;51.972;7.640;2023-05-07T16:33:19;22.00;67.50
11836;DHT22;5977;51.972;7.640;2023-05-07T16:35:50;22.10;68.10
11836;DHT22;5977;51.972;7.640;2023-05-07T16:38:18;22.10;67.80
11836;DHT22;5977;51.972;7.640;2023-05-07T16:40:46;22.20;67.70
11836;DHT22;5977;51.972;7.640;2023-05-07T16:43:14;22.20;67.50
11836;DHT22;5977;51.972;7.640;2023-05-07T16:45:42;22.00;66.20
11836;DHT22;5977;51.972;7.640;2023-05-07T16:48:11;21.70;66.60
11836;DHT22;5977;51.972;7.640;2023-05-07T16:50:39;21.50;67.20
11836;DHT22;5977;51.972;7.640;2023-05-07T16:53:10;21.40;67.80
11836;DHT22;5977;51.972;7.640;2023-05-07T16:55:39;21.30;67.90
11836;DHT22;5977;51.972;7.640;2023-05-07T16:58:08;21.40;68.40
11836;DHT22;5977;51.972;7.640;2023-05-07T17:00:37;21.50;68.10
11836;DHT22;5977;51.972;7.640;2023-05-07T17:03:21;21.50;68.10
11836;DHT22;5977;51.972;7.640;2023-05-07T17:05:51;21.70;68.10
11836;DHT22;5977;51.972;7.640;2023-05-07T17:08:20;21.80;67.60
11836;DHT22;5977;51.972;7.640;2023-05-07T17:10:51;21.80;67.30
11836;DHT22;5977;51.972;7.640;2023-05-07T17:13:26;21.80;67.10
11836;DHT22;5977;51.972;7.640;2023-05-07T17:15:54;21.70;67.90
11836;DHT22;5977;51.972;7.640;2023-05-07T17:18:23;21.80;67.40
11836;DHT22;5977;51.972;7.640;2023-05-07T17:20:51;21.70;67.60
11836;DHT22;5977;51.972;7.640;2023-05-07T17:23:20;21.60;68.10
11836;DHT22;5977;51.972;7.640;2023-05-07T17:25:48;21.60;68.30
11836;DHT22;5977;51.972;7.640;2023-05-07T17:28:16;21.50;68.20
11836;DHT22;5977;51.972;7.640;2023-05-07T17:30:44;21.30;68.40
11836;DHT22;5977;51.972;7.640;2023-05-07T17:33:13;21.30;68.50
11836;DHT22;5977;51.972;7.640;2023-05-07T17:35:49;21.30;68.70
11836;DHT22;5977;51.972;7.640;2023-05-07T17:38:19;21.40;69.40
11836;DHT22;5977;51.972;7.640;2023-05-07T17:40:47;21.40;68.80
11836;DHT22;5977;51.972;7.640;2023-05-07T17:43:15;21.40;68.80
11836;DHT22;5977;51.972;7.640;2023-05-07T17:45:43;21.50;68.60
11836;DHT22;5977;51.972;7.640;2023-05-07T17:48:12;21.60;68.70
11836;DHT22;5977;51.972;7.640;2023-05-07T17:50:40;21.70;68.70
11836;DHT22;5977;51.972;7.640;2023-05-07T17:53:09;21.60;68.50
11836;DHT22;5977;51.972;7.640;2023-05-07T17:55:40;21.50;68.40
11836;DHT22;5977;51.972;7.640;2023-05-07T17:58:09;21.50;69.00
11836;DHT22;5977;51.972;7.640;2023-05-07T18:00:37;21.50;68.50
11836;DHT22;5977;51.972;7.640;2023-05-07T18:03:05;21.40;68.30
11836;DHT22;5977;51.972;7.640;2023-05-07T18:05:36;21.40;69.00
11836;DHT22;5977;51.972;7.640;2023-05-07T18:08:06;21.30;68.60
11836;DHT22;5977;51.972;7.640;2023-05-07T18:10:35;21.30;68.70
11836;DHT22;5977;51.972;7.640;2023-05-07T18:13:03;21.20;68.20
11836;DHT22;5977;51.972;7.640;2023-05-07T18:15:31;21.00;68.90
11836;DHT22;5977;51.972;7.640;2023-05-07T18:17:59;20.90;69.20
11836;DHT22;5977;51.972;7.640;2023-05-07T18:20:27;21.10;69.50
11836;DHT22;5977;51.972;7.640;2023-05-07T18:22:54;21.00;68.40
11836;DHT22;5977;51.972;7.640;2023-05-07T18:25:22;20.80;68.70
11836;DHT22;5977;51.972;7.640;2023-05-07T18:27:52;20.80;69.30
11836;DHT22;5977;51.972;7.640;2023-05-07T18:30:20;20.70;69.50
11836;DHT22;5977;51.972;7.640;2023-05-07T18:32:48;20.80;69.70
11836;DHT22;5977;51.972;7.640;2023-05-07T18:35:16;20.80;69.10
11836;DHT22;5977;51.972;7.640;2023-05-07T18:37:44;20.80;69.10
11836;DHT22;5977;51.972;7.640;2023-05-07T18:40:12;21.00;69.30
11836;DHT22;5977;51.972;7.640;2023-05-07T18:42:40;20.80;68.80
11836;DHT22;5977;51.972;7.640;2023-05-07T18:45:10;21.00;68.60
11836;DHT22;5977;51.972;7.640;2023-05-07T18:47:38;20.90;68.60
11836;DHT22;5977;51.972;7.640;2023-05-07T18:50:07;20.80;69.20
11836;DHT22;5977;51.972;7.640;2023-05-07T18:52:35;21.00;69.20
11836;DHT22;5977;51.972;7.640;2023-05-07T18:55:04;21.00;69.00
11836;DHT22;5977;51.972;7.640;2023-05-07T18:57:32;20.90;69.30
11836;DHT22;5977;51.972;7.640;2023-05-07T19:00:00;21.00;68.60
11836;DHT22;5977;51.972;7.640;2023-05-07T19:02:29;20.80;69.30
11836;DHT22;5977;51.972;7.640;2023-05-07T19:04:57;21.00;69.70
11836;DHT22;5977;51.972;7.640;2023-05-07T19:07:25;21.00;69.00
11836;DHT22;5977;51.972;7.640;2023-05-07T19:09:53;21.00;68.80
11836;DHT22;5977;51.972;7.640;2023-05-07T19:12:31;21.20;69.50
11836;DHT22;5977;51.972;7.640;2023-05-07T19:14:59;21.30;69.00
11836;DHT22;5977;51.972;7.640;2023-05-07T19:17:28;21.30;68.30
11836;DHT22;5977;51.972;7.640;2023-05-07T19:19:56;21.30;68.70
11836;DHT22;5977;51.972;7.640;2023-05-07T19:22:24;21.30;68.50
11836;DHT22;5977;51.972;7.640;2023-05-07T19:24:52;21.30;69.10
11836;DHT22;5977;51.972;7.640;2023-05-07T19:27:20;21.30;68.30
11836;DHT22;5977;51.972;7.640;2023-05-07T19:29:48;21.20;68.10
11836;DHT22;5977;51.972;7.640;2023-05-07T19:32:15;21.20;68.80
11836;DHT22;5977;51.972;7.640;2023-05-07T19:34:47;21.20;68.70
11836;DHT22;5977;51.972;7.640;2023-05-07T19:37:15;21.20;68.40
11836;DHT22;5977;51.972;7.640;2023-05-07T19:39:43;21.20;68.40
11836;DHT22;5977;51.972;7.640;2023-05-07T19:42:11;21.10;68.20
11836;DHT22;5977;51.972;7.640;2023-05-07T19:44:39;21.20;68.60
11836;DHT22;5977;51.972;7.640;2023-05-07T19:47:07;21.00;68.10
11836;DHT22;5977;51.972;7.640;2023-05-07T19:49:35;21.00;68.80
11836;DHT22;5977;51.972;7.640;2023-05-07T19:52:05;21.10;68.50
11836;DHT22;5977;51.972;7.640;2023-05-07T19:54:34;21.10;68.80
11836;DHT22;5977;51.972;7.640;2023-05-07T19:57:03;21.20;68.60
11836;DHT22;5977;51.972;7.640;2023-05-07T19:59:30;21.10;68.40
11836;DHT22;5977;51.972;7.640;2023-05-07T20:01:59;21.10;68.70
11836;DHT22;5977;51.972;7.640;2023-05-07T20:04:27;21.10;68.50
11836;DHT22;5977;51.972;7.640;2023-05-07T20:06:58;20.90;68.80
11836;DHT22;5977;51.972;7.640;2023-05-07T20:09:28;21.10;69.00
11836;DHT22;5977;51.972;7.640;2023-05-07T20:11:56;21.00;68.90
11836;DHT22;5977;51.972;7.640;2023-05-07T20:14:24;20.90;69.00